Time;durP1;ratioP1;P1;durP2;ratioP2;P2;SDS_P1;SDS_P2;PMS_P1;PMS_P2;Temp;Humidity;BMP_temperature;BMP_pressure;BME280_temperature;BME280_humidity;BME280_pressure;Samples;Min_cycle;Max_cycle;Signal;HPM_P1;HPM_P2
2023/12/22 00:01:48;;;;;;;;;48.50;41.50;;;;;6.52;100.00;97075.00;6311222;20;2858659;-50
2023/12/22 00:04:17;;;;;;;;;55.00;43.00;;;;;6.55;100.00;97104.88;6279130;20;2863946;-47
2023/12/22 00:06:48;;;;;;;;;54.50;42.50;;;;;6.61;100.00;97172.84;6275640;20;2863914;-47
2023/12/22 00:09:17;;;;;;;;;47.67;36.00;;;;;6.53;100.00;97186.84;6276824;20;3625287;-46
2023/12/22 00:11:47;;;;;;;;;53.67;41.33;;;;;6.48;100.00;97150.88;6311114;20;2860690;-47
2023/12/22 00:14:16;;;;;;;;;56.00;42.50;;;;;6.36;100.00;97145.59;6309576;20;2855462;-50
2023/12/22 00:16:44;;;;;;;;;53.50;39.50;;;;;6.32;100.00;97157.53;6277028;20;2869154;-47
2023/12/22 00:19:13;;;;;;;;;58.00;43.00;;;;;6.46;100.00;97168.81;6276500;20;2872150;-47
2023/12/22 00:21:42;;;;;;;;;48.50;41.50;;;;;6.51;100.00;97193.28;6278964;20;2852383;-49
2023/12/22 00:24:11;;;;;;;;;48.00;42.00;;;;;6.51;100.00;97204.78;6278871;20;2849238;-47
2023/12/22 00:26:39;;;;;;;;;46.50;37.50;;;;;6.70;100.00;97201.38;6274233;20;2855102;-48
2023/12/22 00:29:07;;;;;;;;;47.50;40.50;;;;;6.62;100.00;97201.19;6275450;20;2493036;-47
2023/12/22 00:31:36;;;;;;;;;51.67;42.00;;;;;6.63;100.00;97197.53;6279447;20;3597162;-49
2023/12/22 00:34:04;;;;;;;;;56.50;44.50;;;;;6.52;100.00;97192.28;6278407;20;2849295;-48
2023/12/22 00:36:33;;;;;;;;;62.00;48.50;;;;;6.52;100.00;97190.44;6277443;20;2878401;-45
2023/12/22 00:39:03;;;;;;;;;54.67;41.00;;;;;6.56;100.00;97196.38;6277187;20;2882697;-47
2023/12/22 00:41:32;;;;;;;;;46.00;39.00;;;;;6.57;100.00;97185.56;6310485;20;2844036;-47
2023/12/22 00:44:00;;;;;;;;;56.00;43.00;;;;;6.45;100.00;97183.09;6277022;20;2860660;-46
2023/12/22 00:46:29;;;;;;;;;50.50;41.50;;;;;6.59;100.00;97174.78;6278755;20;2856646;-46
2023/12/22 00:48:58;;;;;;;;;44.00;37.67;;;;;6.70;100.00;97185.38;6277321;20;2860362;-47
2023/12/22 00:51:28;;;;;;;;;47.33;38.00;;;;;6.65;100.00;97179.59;6310039;20;2867084;-48
2023/12/22 00:53:57;;;;;;;;;35.33;33.67;;;;;6.86;100.00;97200.91;6309169;20;3573200;-49
2023/12/22 00:56:26;;;;;;;;;37.67;28.00;;;;;6.89;100.00;97203.28;6307090;20;2862759;-48
2023/12/22 00:58:56;;;;;;;;;41.67;32.67;;;;;6.96;100.00;97214.28;6309011;20;2874570;-48
2023/12/22 01:01:36;;;;;;;;;33.00;27.33;;;;;7.04;100.00;97211.81;6308556;20;3583563;-45
2023/12/22 01:04:05;;;;;;;;;35.50;34.00;;;;;6.96;100.00;97198.28;6275666;20;2862778;-46
2023/12/22 01:06:38;;;;;;;;;44.00;38.00;;;;;7.04;100.00;97201.13;6276564;20;2869150;-45
2023/12/22 01:09:09;;;;;;;;;46.67;37.00;;;;;6.97;100.00;97205.28;6306347;20;2868175;-45
2023/12/22 01:11:37;;;;;;;;;52.67;38.67;;;;;6.95;100.00;97199.25;6310926;20;3596135;-46
2023/12/22 01:14:07;;;;;;;;;50.00;41.50;;;;;7.02;100.00;97208.41;6276722;20;2855630;-50
2023/12/22 01:17:12;;;;;;;;;51.50;41.00;;;;;6.87;100.00;97220.41;6271896;20;2493034;-48
2023/12/22 01:19:39;;;;;;;;;50.50;41.00;;;;;6.82;100.00;97231.50;6277475;20;2853467;-46
2023/12/22 01:22:09;;;;;;;;;45.00;38.33;;;;;6.70;100.00;97198.69;6283679;20;2860849;-47
2023/12/22 01:24:40;;;;;;;;;53.00;41.00;;;;;6.80;100.00;97167.59;6314374;20;2866005;-48
2023/12/22 01:27:11;;;;;;;;;38.50;36.00;;;;;6.77;100.00;97165.22;6313594;20;2847284;-47
2023/12/22 01:29:39;;;;;;;;;26.00;22.00;;;;;6.75;100.00;97153.81;6280386;20;2848255;-45
2023/12/22 01:32:09;;;;;;;;;38.00;35.67;;;;;6.86;100.00;97170.72;6280617;20;3612867;-46
2023/12/22 01:34:38;;;;;;;;;34.33;31.33;;;;;6.75;100.00;97185.81;6311897;20;3609713;-47
2023/12/22 01:37:09;;;;;;;;;30.67;30.67;;;;;6.87;100.00;97185.72;6315093;20;3596093;-48
2023/12/22 01:39:38;;;;;;;;;32.00;29.67;;;;;6.67;100.00;97161.66;6280176;20;2867115;-49
2023/12/22 01:42:08;;;;;;;;;36.33;32.67;;;;;6.91;100.00;97190.66;6313822;20;2870086;-48
2023/12/22 01:44:36;;;;;;;;;30.00;28.50;;;;;6.67;100.00;97198.13;6313330;20;2847144;-48
2023/12/22 01:47:05;;;;;;;;;31.50;25.50;;;;;6.76;100.00;97192.84;6281226;20;2848180;-47
2023/12/22 01:49:33;;;;;;;;;25.00;21.00;;;;;6.55;100.00;97184.84;6280022;20;2500787;-45
2023/12/22 01:52:02;;;;;;;;;23.00;18.00;;;;;6.66;100.00;97186.63;6278529;20;3562756;-46
2023/12/22 01:54:30;;;;;;;;;13.00;13.00;;;;;6.67;100.00;97188.31;6277997;20;2785786;-48
2023/12/22 01:56:59;;;;;;;;;25.00;22.50;;;;;6.61;100.00;97178.19;6278424;20;2844093;-48
2023/12/22 01:59:30;;;;;;;;;18.67;17.00;;;;;6.63;100.00;97186.88;6280680;20;3552351;-50
2023/12/22 02:01:58;;;;;;;;;20.00;17.00;;;;;6.72;100.00;97196.75;6283906;20;2828421;-49
2023/12/22 02:04:27;;;;;;;;;21.00;19.00;;;;;6.64;100.00;97199.25;6280964;20;2828457;-51
2023/12/22 02:06:55;;;;;;;;;19.00;15.50;;;;;6.63;100.00;97202.88;6278557;20;2825310;-47
2023/12/22 02:09:23;;;;;;;;;19.00;17.00;;;;;6.53;100.00;97196.63;6283496;20;2811979;-50
2023/12/22 02:11:51;;;;;;;;;21.33;16.67;;;;;6.61;100.00;97194.19;6282194;20;3557698;-50
2023/12/22 02:14:21;;;;;;;;;18.33;15.33;;;;;6.50;100.00;97192.44;6282204;20;3553430;-49
2023/12/22 02:17:15;;;;;;;;;16.00;14.00;;;;;6.43;100.00;97206.41;6279772;20;3525296;-45
2023/12/22 02:19:46;;;;;;;;;21.00;15.67;;;;;6.45;100.00;97199.09;6313628;20;3545010;-45
2023/12/22 02:22:15;;;;;;;;;20.00;15.00;;;;;6.57;100.00;97192.72;6277002;20;3544105;-48
2023/12/22 02:24:43;;;;;;;;;10.00;10.00;;;;;6.50;100.00;97159.56;6282784;20;2785739;-49
2023/12/22 02:27:49;;;;;;;;;10.00;10.00;;;;;6.51;100.00;97129.28;6282192;20;2781531;-46
2023/12/22 02:30:49;;;;;;;;;13.00;10.00;;;;;6.55;100.00;97104.88;6278503;20;2787806;-47
2023/12/22 02:33:19;;;;;;;;;9.00;7.00;;;;;6.69;100.00;97085.03;6298833;20;1806624;-45
2023/12/22 02:35:50;;;;;;;;;12.00;7.00;;;;;6.74;100.00;97098.81;6315520;20;2758728;-46
2023/12/22 02:38:19;;;;;;;;;7.50;4.00;;;;;6.74;100.00;97119.28;6280434;20;2750302;-46
2023/12/22 02:40:48;;;;;;;;;6.00;5.00;;;;;6.73;100.00;97115.78;6297034;20;1821242;-47
2023/12/22 02:43:16;;;;;;;;;10.50;8.50;;;;;6.68;100.00;97107.34;6310765;20;2769037;-46
2023/12/22 02:45:44;;;;;;;;;6.00;6.00;;;;;6.61;100.00;97087.53;6284933;20;2745290;-46
2023/12/22 02:48:12;;;;;;;;;5.00;4.00;;;;;6.56;100.00;97116.41;6284710;20;2752385;-47
2023/12/22 02:50:40;;;;;;;;;7.00;6.00;;;;;6.53;100.00;97127.31;6282180;20;2750311;-48
2023/12/22 02:53:07;;;;;;;;;7.00;6.00;;;;;6.54;100.00;97123.69;6283687;20;2749327;-47
2023/12/22 02:55:36;;;;;;;;;3.00;3.00;;;;;6.65;100.00;97147.59;6297871;20;1814956;-47
2023/12/22 02:58:04;;;;;;;;;3.00;2.00;;;;;6.65;100.00;97165.41;6328881;20;1816299;-49
2023/12/22 03:00:33;;;;;;;;;3.00;3.00;;;;;6.53;100.00;97169.97;6327405;20;1814968;-50
2023/12/22 03:03:02;;;;;;;;;3.00;3.00;;;;;6.45;100.00;97172.44;6328632;20;1810780;-48
2023/12/22 03:05:31;;;;;;;;;4.00;4.00;;;;;6.37;100.00;97189.09;6326063;20;1821210;-48
2023/12/22 03:07:59;;;;;;;;;5.50;4.00;;;;;6.42;100.00;97189.53;6325960;20;1819598;-49
2023/12/22 03:10:30;;;;;;;;;2.67;2.67;;;;;6.49;100.00;97179.22;6325932;20;1813931;-50
2023/12/22 03:12:58;;;;;;;;;1.00;1.00;;;;;6.65;100.00;97158.25;6326255;20;1815988;-45
2023/12/22 03:15:27;;;;;;;;;2.00;2.00;;;;;6.75;100.00;97153.81;6328512;20;1803471;-46
2023/12/22 03:17:56;;;;;;;;;2.50;2.00;;;;;6.65;100.00;97131.59;6327741;20;1815456;-48
2023/12/22 03:20:24;;;;;;;;;2.00;2.00;;;;;6.70;100.00;97145.38;6332113;20;1815644;-47
2023/12/22 03:22:53;;;;;;;;;2.00;2.00;;;;;6.57;100.00;97163.41;6330304;20;1811823;-47
2023/12/22 03:25:21;;;;;;;;;5.75;3.75;;;;;6.65;100.00;97163.59;6331642;20;1817009;-49
2023/12/22 03:27:51;;;;;;;;;15.40;11.60;;;;;6.50;100.00;97175.56;6337527;20;2796226;-48
2023/12/22 03:30:22;;;;;;;;;10.71;9.43;;;;;6.67;100.00;97182.13;6322539;20;1801377;-48
2023/12/22 03:32:50;;;;;;;;;21.00;13.50;;;;;6.68;100.00;97189.16;6312107;20;2816957;-46
2023/12/22 03:35:18;;;;;;;;;1.00;1.00;;;;;6.68;100.00;97197.16;6282630;20;3440063;-49
2023/12/22 03:37:47;;;;;;;;;0.00;0.00;;;;;6.65;100.00;97198.25;6297391;20;1803441;-49
2023/12/22 03:40:16;;;;;;;;;1.75;1.75;;;;;6.53;100.00;97201.94;6330911;20;1803456;-48
2023/12/22 03:42:44;;;;;;;;;1.00;1.00;;;;;6.55;100.00;97218.66;6329098;20;1809138;-46
2023/12/22 03:45:12;;;;;;;;;2.00;1.00;;;;;6.49;100.00;97232.53;6312956;20;3432605;-47
2023/12/22 03:47:40;;;;;;;;;1.50;1.50;;;;;6.55;100.00;97219.50;6315163;20;2733664;-48
2023/12/22 03:50:08;;;;;;;;;1.00;1.00;;;;;6.62;100.00;97232.34;6313038;20;3432622;-52
2023/12/22 03:52:37;;;;;;;;;1.75;1.75;;;;;6.54;100.00;97236.50;6331971;20;1811833;-49
2023/12/22 03:55:06;;;;;;;;;5.75;3.50;;;;;6.50;100.00;97240.41;6330189;20;1806716;-49
2023/12/22 03:57:34;;;;;;;;;3.25;3.25;;;;;6.30;100.00;97234.06;6327262;20;1814390;-48
2023/12/22 04:00:04;;;;;;;;;4.50;4.50;;;;;6.52;100.00;97226.94;6311616;20;2754480;-48
2023/12/22 04:02:32;;;;;;;;;3.00;3.00;;;;;6.46;100.00;97214.13;6298922;20;1814886;-47
2023/12/22 04:05:01;;;;;;;;;2.00;2.00;;;;;6.42;100.00;97210.88;6330410;20;1815998;-45
2023/12/22 04:07:30;;;;;;;;;3.00;2.00;;;;;6.50;100.00;97207.56;6328763;20;1811754;-46
2023/12/22 04:09:58;;;;;;;;;3.00;3.00;;;;;6.53;100.00;97210.81;6312365;20;2752537;-46
2023/12/22 04:12:25;;;;;;;;;2.00;2.00;;;;;6.50;100.00;97212.88;6280833;20;2747127;-48
2023/12/22 04:14:54;;;;;;;;;1.25;1.25;;;;;6.46;100.00;97208.81;6297031;20;1807648;-47
2023/12/22 04:17:22;;;;;;;;;1.00;1.00;;;;;6.35;100.00;97218.53;6329168;20;1809140;-48
2023/12/22 04:19:52;;;;;;;;;1.00;1.00;;;;;6.41;100.00;97213.69;6327199;20;1803399;-46
2023/12/22 04:22:21;;;;;;;;;1.75;1.75;;;;;6.48;100.00;97209.53;6329441;20;1811785;-45
2023/12/22 04:24:49;;;;;;;;;1.00;1.00;;;;;6.36;100.00;97222.88;6330818;20;1805595;-47
2023/12/22 04:27:17;;;;;;;;;1.00;1.00;;;;;6.36;100.00;97238.88;6313126;20;3433810;-45
2023/12/22 04:29:46;;;;;;;;;1.00;1.00;;;;;6.45;100.00;97247.06;6327470;20;1813948;-47
2023/12/22 04:32:14;;;;;;;;;7.50;3.50;;;;;6.16;100.00;97237.03;6311144;20;2745090;-49
2023/12/22 04:34:42;;;;;;;;;2.50;2.50;;;;;6.25;100.00;97256.75;6297643;20;1819040;-48
2023/12/22 04:37:11;;;;;;;;;3.00;3.00;;;;;6.13;100.00;97258.59;6328074;20;1819146;-48
2023/12/22 04:39:40;;;;;;;;;3.00;1.00;;;;;6.05;100.00;97245.06;6328168;20;1809710;-50
2023/12/22 04:42:09;;;;;;;;;1.25;0.00;;;;;6.29;100.00;97263.50;6329620;20;1807611;-47
2023/12/22 04:44:37;;;;;;;;;0.25;0.00;;;;;6.26;100.00;97293.91;6328713;20;1809793;-49
2023/12/22 04:47:06;;;;;;;;;0.00;0.00;;;;;6.27;100.00;97295.63;6329744;20;1809776;-48
2023/12/22 04:49:34;;;;;;;;;0.00;0.00;;;;;6.25;99.97;97300.22;6325039;20;1807577;-47
2023/12/22 04:52:03;;;;;;;;;0.25;0.25;;;;;6.13;98.05;97285.25;6330108;20;1805559;-48
2023/12/22 04:54:31;;;;;;;;;0.00;0.00;;;;;6.10;98.65;97275.69;6313765;20;3444529;-52
2023/12/22 04:56:59;;;;;;;;;0.50;0.50;;;;;6.06;98.24;97273.41;6302784;20;1811826;-51
2023/12/22 04:59:28;;;;;;;;;1.50;0.00;;;;;5.99;100.00;97282.88;6331712;20;1803441;-48
2023/12/22 05:01:57;;;;;;;;;0.50;0.50;;;;;5.77;100.00;97268.63;6331137;20;1811825;-52
2023/12/22 05:04:25;;;;;;;;;2.00;0.00;;;;;5.42;100.00;97264.28;6316119;20;3436067;-50
2023/12/22 05:06:53;;;;;;;;;1.33;0.00;;;;;5.55;100.00;97268.63;6317009;20;3439884;-48
2023/12/22 05:09:20;;;;;;;;;1.00;1.00;;;;;5.43;100.00;97266.00;6284029;20;3441941;-49
2023/12/22 05:11:48;;;;;;;;;0.33;0.00;;;;;5.49;100.00;97259.34;6285990;20;3440876;-51
2023/12/22 05:14:17;;;;;;;;;1.00;0.00;;;;;5.41;100.00;97262.59;6333387;20;1802905;-50
2023/12/22 05:16:45;;;;;;;;;2.00;1.00;;;;;5.37;100.00;97269.16;6329979;20;1803298;-47
2023/12/22 05:19:13;;;;;;;;;1.00;0.67;;;;;5.43;100.00;97276.63;6314130;20;3435724;-49
2023/12/22 05:21:41;;;;;;;;;0.00;0.00;;;;;5.46;100.00;97286.19;6316066;20;3435675;-50
2023/12/22 05:24:08;;;;;;;;;0.00;0.00;;;;;5.32;100.00;97281.97;6314131;20;3435693;-51
2023/12/22 05:26:37;;;;;;;;;1.50;1.00;;;;;5.49;100.00;97297.44;6334318;20;1817057;-47
2023/12/22 05:29:08;;;;;;;;;2.00;0.25;;;;;5.54;99.75;97306.88;6332071;20;1802384;-48
2023/12/22 05:31:36;;;;;;;;;1.00;1.00;;;;;5.49;99.81;97297.44;6315875;20;3442980;-48
2023/12/22 05:34:04;;;;;;;;;0.00;0.00;;;;;5.53;97.50;97313.16;6302166;20;1809700;-49
2023/12/22 05:36:33;;;;;;;;;2.50;1.75;;;;;5.46;96.74;97313.63;6334899;20;1817025;-48
2023/12/22 05:39:01;;;;;;;;;4.75;1.00;;;;;5.54;94.18;97307.72;6329370;20;1810817;-50
2023/12/22 05:41:29;;;;;;;;;5.00;5.00;;;;;5.42;95.72;97321.97;6317663;20;2754439;-47
2023/12/22 05:43:57;;;;;;;;;14.00;7.00;;;;;5.34;95.08;97329.72;6310425;20;2777566;-46
2023/12/22 05:46:25;;;;;;;;;8.00;7.00;;;;;5.25;95.12;97333.97;6285568;20;3454442;-48
2023/12/22 05:48:54;;;;;;;;;1.75;1.00;;;;;5.36;93.59;97339.28;6330952;20;1807600;-47
2023/12/22 05:51:25;;;;;;;;;6.00;4.00;;;;;5.35;93.39;97337.59;6334634;20;1825339;-50
2023/12/22 05:53:55;;;;;;;;;4.67;2.00;;;;;5.37;92.73;97361.41;6315865;20;3446236;-49
2023/12/22 05:56:23;;;;;;;;;0.67;0.00;;;;;5.35;91.89;97358.03;6285247;20;3437904;-49
2023/12/22 05:58:52;;;;;;;;;5.25;1.75;;;;;5.18;92.66;97362.00;6299960;20;1810073;-47
2023/12/22 06:01:19;;;;;;;;;2.00;1.00;;;;;5.40;92.16;97367.34;6313117;20;3431667;-46
2023/12/22 06:03:48;;;;;;;;;2.25;2.25;;;;;5.15;92.39;97365.72;6334290;20;1807515;-50
2023/12/22 06:06:18;;;;;;;;;5.00;3.00;;;;;5.20;91.85;97360.91;6313345;20;1817086;-47
2023/12/22 06:08:48;;;;;;;;;21.40;11.20;;;;;5.23;92.33;97363.31;6336346;20;2817988;-46
2023/12/22 06:11:18;;;;;;;;;8.67;8.17;;;;;5.17;92.08;97360.31;6323041;20;1812856;-50
2023/12/22 06:13:47;;;;;;;;;16.67;14.67;;;;;4.96;94.09;97363.63;6282716;20;3543050;-49
2023/12/22 06:16:15;;;;;;;;;13.00;8.50;;;;;5.00;93.03;97358.94;6309096;20;2766023;-48
2023/12/22 06:18:44;;;;;;;;;5.50;2.00;;;;;5.07;92.92;97371.63;6285930;20;2736900;-45
2023/12/22 06:21:12;;;;;;;;;2.00;2.00;;;;;4.95;93.03;97358.44;6329405;20;1813276;-44
2023/12/22 06:23:41;;;;;;;;;3.00;1.00;;;;;5.25;92.11;97364.06;6331119;20;1807571;-48
2023/12/22 06:26:11;;;;;;;;;2.00;2.00;;;;;5.18;91.92;97367.31;6329287;20;1816133;-46
2023/12/22 06:28:40;;;;;;;;;2.00;2.00;;;;;5.11;92.95;97376.72;6331384;20;1808615;-50
2023/12/22 06:31:20;;;;;;;;;5.25;3.75;;;;;4.97;94.41;97383.94;6329985;20;1811853;-48
2023/12/22 06:33:50;;;;;;;;;2.00;1.00;;;;;4.94;94.49;97389.50;6315205;20;3431532;-47
2023/12/22 06:36:24;;;;;;;;;4.00;2.25;;;;;4.99;94.61;97395.31;6330239;20;1820169;-47
2023/12/22 06:38:54;;;;;;;;;1.00;1.00;;;;;5.03;92.93;97407.44;6331182;20;1809810;-45
2023/12/22 06:41:29;;;;;;;;;2.00;2.00;;;;;4.97;92.90;97418.50;6332281;20;1809697;-49
2023/12/22 06:44:01;;;;;;;;;1.75;1.00;;;;;5.07;92.02;97411.53;6330776;20;1810293;-49
2023/12/22 06:46:30;;;;;;;;;4.00;3.00;;;;;5.17;91.34;97425.00;6332506;20;1817595;-49
2023/12/22 06:48:59;;;;;;;;;2.00;2.00;;;;;5.24;91.97;97425.38;6332097;20;1825531;-46
2023/12/22 06:51:34;;;;;;;;;5.00;3.00;;;;;5.22;90.74;97432.63;6314449;20;2756551;-49
2023/12/22 06:54:07;;;;;;;;;7.00;4.75;;;;;5.49;91.04;97425.16;6329797;20;1808770;-45
2023/12/22 06:56:36;;;;;;;;;8.00;3.00;;;;;5.28;90.66;97443.63;6314695;20;2747146;-47
2023/12/22 06:59:05;;;;;;;;;6.50;3.50;;;;;5.38;90.90;97440.28;6331591;20;1825395;-47
2023/12/22 07:01:35;;;;;;;;;2.00;1.00;;;;;5.72;91.51;97442.03;6329956;20;1812869;-48
2023/12/22 07:04:06;;;;;;;;;3.00;2.00;;;;;5.39;88.05;97440.16;6331327;20;1821197;-49
2023/12/22 07:06:35;;;;;;;;;4.50;3.00;;;;;5.37;87.67;97452.75;6314834;20;2731599;-46
2023/12/22 07:09:12;;;;;;;;;2.25;2.25;;;;;5.55;85.20;97449.63;6331338;20;1809765;-46
2023/12/22 07:11:50;;;;;;;;;5.33;1.33;;;;;5.44;85.44;97469.91;6312609;20;3435707;-46
2023/12/22 07:14:18;;;;;;;;;2.50;2.50;;;;;5.41;85.72;97456.00;6313695;20;2755520;-47
2023/12/22 07:16:46;;;;;;;;;1.75;1.00;;;;;5.49;84.62;97458.94;6292590;20;1805594;-48
2023/12/22 07:19:15;;;;;;;;;6.25;6.00;;;;;5.54;83.71;97450.59;6327806;20;1819558;-48
2023/12/22 07:21:44;;;;;;;;;5.50;2.50;;;;;5.57;83.02;97453.00;6313308;20;2754564;-48
2023/12/22 07:24:14;;;;;;;;;7.50;3.00;;;;;5.53;82.80;97448.88;6279796;20;2756566;-50
2023/12/22 07:26:44;;;;;;;;;7.00;6.00;;;;;5.63;82.03;97455.19;6280929;20;2756591;-51
2023/12/22 07:29:12;;;;;;;;;7.50;6.00;;;;;5.77;80.83;97470.97;6280443;20;2747281;-47
2023/12/22 07:31:40;;;;;;;;;11.00;7.00;;;;;5.64;81.34;97475.53;6281642;20;2770078;-49
2023/12/22 07:34:09;;;;;;;;;8.75;6.75;;;;;5.64;82.05;97467.56;6288173;20;1818963;-49
2023/12/22 07:36:37;;;;;;;;;8.50;8.50;;;;;5.77;81.73;97478.94;6304560;20;2737803;-51
2023/12/22 07:39:18;;;;;;;;;4.00;4.00;;;;;5.83;80.49;97489.13;6304364;20;2756537;-48
2023/12/22 07:41:46;;;;;;;;;4.67;1.00;;;;;5.86;79.48;97478.22;6305644;20;3433614;-51
2023/12/22 07:44:15;;;;;;;;;8.00;4.00;;;;;5.82;78.99;97481.22;6319883;20;1811893;-46
2023/12/22 07:46:43;;;;;;;;;6.75;3.50;;;;;5.90;78.52;97493.00;6319686;20;1816891;-49
2023/12/22 07:49:12;;;;;;;;;3.00;3.00;;;;;6.00;76.49;97493.16;6318058;20;1822311;-49
2023/12/22 07:51:42;;;;;;;;;3.00;3.00;;;;;5.98;75.71;97488.91;6300972;20;2743019;-48
2023/12/22 07:54:11;;;;;;;;;3.00;3.00;;;;;5.99;75.58;97493.28;6291203;20;1818118;-47
2023/12/22 07:56:40;;;;;;;;;2.50;2.50;;;;;6.16;74.38;97500.78;6318564;20;1818111;-49
2023/12/22 07:59:08;;;;;;;;;3.00;3.00;;;;;5.99;73.14;97503.94;6321685;20;1800281;-51
2023/12/22 08:01:53;;;;;;;;;6.50;6.50;;;;;6.40;70.99;97507.81;6303087;20;2748259;-48
2023/12/22 08:04:21;;;;;;;;;6.00;3.00;;;;;6.25;72.01;97516.06;6274209;20;2741181;-50
2023/12/22 08:06:49;;;;;;;;;3.00;2.50;;;;;6.27;70.63;97511.47;6304402;20;2754468;-50
2023/12/22 08:09:17;;;;;;;;;3.00;3.00;;;;;6.43;69.58;97499.59;6274107;20;2738833;-49
2023/12/22 08:11:46;;;;;;;;;6.00;4.00;;;;;6.38;68.21;97508.78;6303883;20;2746164;-48
2023/12/22 08:14:15;;;;;;;;;5.00;4.00;;;;;6.60;71.70;97507.91;6291588;20;1820562;-49
2023/12/22 08:16:44;;;;;;;;;3.00;3.00;;;;;6.54;71.10;97512.91;6304912;20;2742046;-50
2023/12/22 08:19:13;;;;;;;;;4.00;3.00;;;;;6.77;70.88;97514.56;6319865;20;1812075;-49
2023/12/22 08:21:44;;;;;;;;;8.71;5.14;;;;;6.77;68.59;97519.91;6344589;20;1810777;-48
2023/12/22 08:24:14;;;;;;;;;6.00;6.00;;;;;6.92;70.02;97523.13;6306469;20;2738897;-49
2023/12/22 08:26:50;;;;;;;;;7.50;6.50;;;;;6.81;68.11;97528.47;6306756;20;2748279;-52
2023/12/22 08:29:19;;;;;;;;;7.00;4.50;;;;;6.70;67.34;97518.69;6280456;20;2746120;-46
2023/12/22 08:31:47;;;;;;;;;2.00;2.00;;;;;6.94;68.95;97515.00;6286244;20;2741027;-49
2023/12/22 08:34:15;;;;;;;;;4.00;3.00;;;;;7.16;66.66;97530.09;6314536;20;2756565;-48
2023/12/22 08:36:44;;;;;;;;;6.25;2.00;;;;;7.07;66.94;97529.03;6300977;20;1816037;-49
2023/12/22 08:39:13;;;;;;;;;2.75;2.25;;;;;7.34;66.48;97533.06;6332985;20;1817651;-52
2023/12/22 08:41:42;;;;;;;;;7.00;4.00;;;;;7.22;66.23;97540.28;6314884;20;2750294;-51
2023/12/22 08:44:10;;;;;;;;;4.00;4.00;;;;;7.26;66.25;97547.88;6287893;20;2745111;-48
2023/12/22 08:46:38;;;;;;;;;3.00;2.00;;;;;7.19;65.95;97554.72;6284226;20;2755492;-50
2023/12/22 08:49:07;;;;;;;;;4.50;4.00;;;;;7.28;67.19;97544.25;6283950;20;2752403;-52
2023/12/22 08:51:35;;;;;;;;;8.50;7.00;;;;;7.33;65.91;97542.91;6284442;20;2737856;-48
2023/12/22 08:54:04;;;;;;;;;7.00;2.00;;;;;7.26;66.26;97561.22;6331966;20;1808660;-50
2023/12/22 08:56:32;;;;;;;;;9.50;5.00;;;;;7.35;65.55;97550.78;6315803;20;2767003;-49
2023/12/22 08:58:59;;;;;;;;;6.00;4.00;;;;;7.36;64.54;97549.81;6284374;20;2743012;-50
2023/12/22 09:01:27;;;;;;;;;8.50;8.50;;;;;7.48;65.35;97548.78;6282637;20;2739879;-48
2023/12/22 09:03:55;;;;;;;;;8.50;7.00;;;;;7.46;65.29;97559.59;6318586;20;2749403;-45
2023/12/22 09:06:24;;;;;;;;;4.50;4.00;;;;;7.43;65.40;97556.34;6318496;20;2739945;-45
2023/12/22 09:08:52;;;;;;;;;5.00;4.00;;;;;7.52;64.53;97550.22;6313637;20;2750481;-45
2023/12/22 09:11:23;;;;;;;;;2.50;2.50;;;;;7.73;61.66;97552.91;6301622;20;1807700;-44
2023/12/22 09:13:50;;;;;;;;;4.50;2.50;;;;;7.63;63.44;97558.16;6315223;20;2755532;-45
2023/12/22 09:16:23;;;;;;;;;11.00;7.00;;;;;8.07;63.09;97566.94;6283193;20;2761704;-46
2023/12/22 09:18:52;;;;;;;;;5.00;3.00;;;;;7.95;61.05;97570.63;6284131;20;2743115;-44
2023/12/22 09:21:20;;;;;;;;;4.00;2.00;;;;;7.96;62.33;97583.03;6281898;20;2750311;-45
2023/12/22 09:23:49;;;;;;;;;4.00;4.00;;;;;8.13;62.67;97579.75;6281910;20;2748183;-47
2023/12/22 09:26:18;;;;;;;;;3.75;2.50;;;;;7.94;62.22;97571.63;6308736;20;1817397;-47
2023/12/22 09:28:48;;;;;;;;;4.25;2.00;;;;;8.14;61.65;97577.94;6334114;20;1817067;-48
2023/12/22 09:31:16;;;;;;;;;1.00;1.00;;;;;8.10;59.57;97580.03;6328616;20;1806606;-47
2023/12/22 09:33:45;;;;;;;;;4.00;2.00;;;;;8.10;61.91;97584.53;6332511;20;1814945;-44
2023/12/22 09:36:14;;;;;;;;;3.50;1.75;;;;;7.95;61.16;97586.66;6332446;20;1802390;-45
2023/12/22 09:38:43;;;;;;;;;3.75;2.00;;;;;8.26;60.55;97589.41;6331556;20;1807666;-45
2023/12/22 09:41:15;;;;;;;;;12.00;7.29;;;;;8.13;63.15;97579.75;6349919;20;1796030;-44
2023/12/22 09:43:44;;;;;;;;;4.50;4.00;;;;;7.75;62.89;97572.34;6309156;20;2745085;-44
2023/12/22 09:46:14;;;;;;;;;5.00;5.00;;;;;8.16;60.26;97564.44;6276036;20;2752361;-46
2023/12/22 09:48:43;;;;;;;;;4.00;4.00;;;;;8.67;60.97;97561.78;6277552;20;2744072;-47
2023/12/22 09:51:14;;;;;;;;;1.25;1.25;;;;;8.61;59.33;97556.09;6290289;20;1812881;-47
2023/12/22 09:53:42;;;;;;;;;6.50;1.00;;;;;8.80;59.87;97553.53;6308760;20;2732586;-46
2023/12/22 09:56:12;;;;;;;;;4.00;4.00;;;;;8.70;59.65;97552.63;6324397;20;1805601;-46
2023/12/22 09:58:41;;;;;;;;;2.00;1.00;;;;;8.84;58.78;97554.91;6324198;20;1810858;-45
2023/12/22 10:01:10;;;;;;;;;6.50;2.50;;;;;8.88;61.68;97560.88;6307482;20;2756539;-46
2023/12/22 10:03:38;;;;;;;;;2.50;2.50;;;;;8.59;61.15;97542.03;6277526;20;2756577;-45
2023/12/22 10:06:06;;;;;;;;;2.00;2.00;;;;;8.63;62.64;97548.81;6276629;20;2750794;-45
2023/12/22 10:08:36;;;;;;;;;2.25;1.50;;;;;7.99;62.98;97539.16;6292380;20;1810801;-45
2023/12/22 10:11:05;;;;;;;;;5.00;3.00;;;;;7.64;63.73;97538.53;6305682;20;2737828;-46
2023/12/22 10:13:36;;;;;;;;;1.50;1.00;;;;;8.21;63.18;97548.84;6323693;20;1802397;-45
2023/12/22 10:16:07;;;;;;;;;2.00;1.00;;;;;8.55;61.24;97542.28;6322660;20;1802942;-46
2023/12/22 10:18:34;;;;;;;;;3.50;3.00;;;;;8.82;61.30;97548.00;6309195;20;2739909;-44
2023/12/22 10:21:02;;;;;;;;;4.00;4.00;;;;;8.14;61.72;97549.38;6307917;20;2750423;-46
2023/12/22 10:23:31;;;;;;;;;6.00;5.00;;;;;8.08;62.93;97549.94;6276717;20;2750267;-44
2023/12/22 10:26:00;;;;;;;;;2.25;2.25;;;;;8.22;64.05;97569.28;6290415;20;1822291;-45
2023/12/22 10:28:28;;;;;;;;;8.00;5.00;;;;;8.22;69.60;97566.59;6305609;20;2745100;-47
2023/12/22 10:31:03;;;;;;;;;2.50;2.00;;;;;7.57;71.18;97572.03;6274852;20;2742091;-45
2023/12/22 10:33:32;;;;;;;;;8.00;5.00;;;;;7.46;73.98;97574.75;6307376;20;2748239;-45
2023/12/22 10:36:00;;;;;;;;;7.00;3.00;;;;;7.21;73.81;97573.25;6276706;20;2756543;-44
2023/12/22 10:38:37;;;;;;;;;3.00;1.75;;;;;7.31;73.57;97579.53;6294016;20;1803434;-46
2023/12/22 10:41:07;;;;;;;;;2.50;2.50;;;;;7.22;76.70;97578.47;6303118;20;2756613;-44
2023/12/22 10:43:41;;;;;;;;;1.50;1.00;;;;;7.02;77.39;97558.75;6276294;20;2471119;-45
2023/12/22 10:46:11;;;;;;;;;4.00;3.00;;;;;7.23;78.53;97563.31;6307822;20;2754794;-43
2023/12/22 10:48:40;;;;;;;;;5.00;5.00;;;;;7.14;76.33;97559.59;6276849;20;2748303;-44
2023/12/22 10:51:11;;;;;;;;;10.50;5.00;;;;;6.90;76.53;97548.22;6272347;20;2763811;-45
2023/12/22 10:53:43;;;;;;;;;10.75;8.00;;;;;7.02;76.93;97544.56;6292554;20;1812933;-44
2023/12/22 10:56:12;;;;;;;;;7.00;7.00;;;;;7.15;74.57;97547.94;6305207;20;2737801;-43
2023/12/22 10:58:42;;;;;;;;;1.75;1.75;;;;;7.17;73.79;97543.31;6295200;20;1809888;-45
2023/12/22 11:01:14;;;;;;;;;9.00;2.00;;;;;7.50;71.30;97533.47;6305257;20;2756663;-45
2023/12/22 11:03:45;;;;;;;;;2.00;2.00;;;;;7.56;72.03;97519.63;6276579;20;2752448;-44
2023/12/22 11:06:16;;;;;;;;;8.25;7.75;;;;;7.51;69.67;97503.13;6290840;20;1818159;-43
2023/12/22 11:08:46;;;;;;;;;11.50;8.00;;;;;7.85;69.13;97497.63;6304326;20;2769051;-43
2023/12/22 11:11:33;;;;;;;;;15.00;15.00;;;;;7.73;67.35;97506.66;6297821;20;2808626;-44
2023/12/22 11:14:02;;;;;;;;;11.50;10.00;;;;;7.86;65.10;97507.31;6273017;20;2783610;-41
2023/12/22 11:16:36;;;;;;;;;10.43;9.71;;;;;7.89;63.78;97507.03;6324904;20;1800344;-43
2023/12/22 11:19:09;;;;;;;;;12.00;9.71;;;;;8.21;63.49;97501.56;6342786;20;1808822;-44
2023/12/22 11:21:39;;;;;;;;;6.00;6.00;;;;;8.56;62.33;97511.91;6303438;20;2747275;-43
2023/12/22 11:24:08;;;;;;;;;10.50;6.00;;;;;8.56;62.27;97505.72;6274426;20;2761960;-49
2023/12/22 11:26:39;;;;;;;;;6.00;4.00;;;;;8.24;63.42;97481.75;6272118;20;2742101;-43
2023/12/22 11:29:07;;;;;;;;;16.50;9.50;;;;;8.41;64.30;97475.81;6270740;20;2778435;-43